sensor_id;sensor_type;location;lat;lon;timestamp;temperature;humidity
77519;DHT22;66629;47.346;19.038;2023-04-03T00:01:05;6.21;74.14
77519;DHT22;66629;47.346;19.038;2023-04-03T00:03:30;6.24;73.33
77519;DHT22;66629;47.346;19.038;2023-04-03T00:05:56;6.20;73.29
77519;DHT22;66629;47.346;19.038;2023-04-03T00:08:21;6.21;73.33
77519;DHT22;66629;47.346;19.038;2023-04-03T00:10:47;6.22;73.33
77519;DHT22;66629;47.346;19.038;2023-04-03T00:13:13;6.21;72.89
77519;DHT22;66629;47.346;19.038;2023-04-03T00:15:39;6.25;73.34
77519;DHT22;66629;47.346;19.038;2023-04-03T00:18:05;6.25;73.62
77519;DHT22;66629;47.346;19.038;2023-04-03T00:20:31;6.21;72.98
77519;DHT22;66629;47.346;19.038;2023-04-03T00:22:57;6.24;73.69
77519;DHT22;66629;47.346;19.038;2023-04-03T00:25:23;6.25;72.91
77519;DHT22;66629;47.346;19.038;2023-04-03T00:27:48;6.28;73.73
77519;DHT22;66629;47.346;19.038;2023-04-03T00:30:16;6.31;73.37
77519;DHT22;66629;47.346;19.038;2023-04-03T00:32:41;6.28;73.26
77519;DHT22;66629;47.346;19.038;2023-04-03T00:35:08;6.32;73.56
77519;DHT22;66629;47.346;19.038;2023-04-03T00:37:34;6.35;73.18
77519;DHT22;66629;47.346;19.038;2023-04-03T00:39:59;6.29;72.64
77519;DHT22;66629;47.346;19.038;2023-04-03T00:42:25;6.29;72.94
77519;DHT22;66629;47.346;19.038;2023-04-03T00:47:22;6.27;73.69
77519;DHT22;66629;47.346;19.038;2023-04-03T00:49:48;6.27;73.29
77519;DHT22;66629;47.346;19.038;2023-04-03T00:52:16;6.22;72.21
77519;DHT22;66629;47.346;19.038;2023-04-03T00:54:43;6.17;72.37
77519;DHT22;66629;47.346;19.038;2023-04-03T00:57:11;6.14;72.52
77519;DHT22;66629;47.346;19.038;2023-04-03T00:59:43;6.07;72.37
77519;DHT22;66629;47.346;19.038;2023-04-03T01:02:10;5.99;73.94
77519;DHT22;66629;47.346;19.038;2023-04-03T01:04:41;6.01;73.31
77519;DHT22;66629;47.346;19.038;2023-04-03T01:07:19;6.04;72.87
77519;DHT22;66629;47.346;19.038;2023-04-03T01:09:48;5.94;71.70
77519;DHT22;66629;47.346;19.038;2023-04-03T01:12:27;5.97;72.28
77519;DHT22;66629;47.346;19.038;2023-04-03T01:14:57;6.00;72.38
77519;DHT22;66629;47.346;19.038;2023-04-03T01:17:49;6.00;72.52
77519;DHT22;66629;47.346;19.038;2023-04-03T01:25:21;5.99;72.39
77519;DHT22;66629;47.346;19.038;2023-04-03T01:27:47;5.99;72.68
77519;DHT22;66629;47.346;19.038;2023-04-03T01:30:13;5.96;71.55
77519;DHT22;66629;47.346;19.038;2023-04-03T01:32:41;5.97;72.79
77519;DHT22;66629;47.346;19.038;2023-04-03T01:35:08;5.92;71.78
77519;DHT22;66629;47.346;19.038;2023-04-03T01:37:33;5.89;70.66
77519;DHT22;66629;47.346;19.038;2023-04-03T01:39:59;5.86;72.40
77519;DHT22;66629;47.346;19.038;2023-04-03T01:42:25;5.87;71.45
77519;DHT22;66629;47.346;19.038;2023-04-03T01:44:50;5.85;71.73
77519;DHT22;66629;47.346;19.038;2023-04-03T01:47:15;5.86;71.81
77519;DHT22;66629;47.346;19.038;2023-04-03T01:49:41;5.83;71.37
77519;DHT22;66629;47.346;19.038;2023-04-03T01:52:06;5.83;73.04
77519;DHT22;66629;47.346;19.038;2023-04-03T01:54:32;5.82;72.38
77519;DHT22;66629;47.346;19.038;2023-04-03T01:56:58;5.76;71.46
77519;DHT22;66629;47.346;19.038;2023-04-03T01:59:23;5.79;72.90
77519;DHT22;66629;47.346;19.038;2023-04-03T02:01:49;5.77;71.97
77519;DHT22;66629;47.346;19.038;2023-04-03T02:04:14;5.75;72.01
77519;DHT22;66629;47.346;19.038;2023-04-03T02:06:40;5.76;71.43
77519;DHT22;66629;47.346;19.038;2023-04-03T02:09:06;5.82;72.54
77519;DHT22;66629;47.346;19.038;2023-04-03T02:11:32;5.75;72.45
77519;DHT22;66629;47.346;19.038;2023-04-03T02:13:58;5.66;71.62
77519;DHT22;66629;47.346;19.038;2023-04-03T02:16:23;5.59;71.19
77519;DHT22;66629;47.346;19.038;2023-04-03T02:18:49;5.60;72.14
77519;DHT22;66629;47.346;19.038;2023-04-03T02:21:15;5.62;72.13
77519;DHT22;66629;47.346;19.038;2023-04-03T02:23:40;5.62;72.13
77519;DHT22;66629;47.346;19.038;2023-04-03T02:26:11;5.56;72.10
77519;DHT22;66629;47.346;19.038;2023-04-03T02:28:37;5.52;71.56
77519;DHT22;66629;47.346;19.038;2023-04-03T02:31:03;5.49;72.06
77519;DHT22;66629;47.346;19.038;2023-04-03T02:33:30;5.47;72.82
77519;DHT22;66629;47.346;19.038;2023-04-03T02:35:56;5.48;71.54
77519;DHT22;66629;47.346;19.038;2023-04-03T02:38:22;5.48;72.02
77519;DHT22;66629;47.346;19.038;2023-04-03T02:40:48;5.44;71.60
77519;DHT22;66629;47.346;19.038;2023-04-03T02:43:13;5.42;71.73
77519;DHT22;66629;47.346;19.038;2023-04-03T02:45:39;5.40;71.29
77519;DHT22;66629;47.346;19.038;2023-04-03T02:48:05;5.47;72.05
77519;DHT22;66629;47.346;19.038;2023-04-03T02:50:30;5.48;71.71
77519;DHT22;66629;47.346;19.038;2023-04-03T02:52:55;5.45;71.94
77519;DHT22;66629;47.346;19.038;2023-04-03T02:55:21;5.40;71.83
77519;DHT22;66629;47.346;19.038;2023-04-03T02:57:46;5.31;71.60
77519;DHT22;66629;47.346;19.038;2023-04-03T03:00:12;5.31;72.25
77519;DHT22;66629;47.346;19.038;2023-04-03T03:02:38;5.30;72.53
77519;DHT22;66629;47.346;19.038;2023-04-03T03:05:04;5.33;72.57
77519;DHT22;66629;47.346;19.038;2023-04-03T03:07:29;5.27;72.48
77519;DHT22;66629;47.346;19.038;2023-04-03T03:09:55;5.24;72.44
77519;DHT22;66629;47.346;19.038;2023-04-03T03:12:20;5.23;72.77
77519;DHT22;66629;47.346;19.038;2023-04-03T03:14:47;5.27;73.81
77519;DHT22;66629;47.346;19.038;2023-04-03T03:17:13;5.23;72.83
77519;DHT22;66629;47.346;19.038;2023-04-03T03:19:39;5.19;72.68
77519;DHT22;66629;47.346;19.038;2023-04-03T03:22:04;5.15;73.04
77519;DHT22;66629;47.346;19.038;2023-04-03T03:24:29;5.17;74.15
77519;DHT22;66629;47.346;19.038;2023-04-03T03:26:55;5.07;73.25
77519;DHT22;66629;47.346;19.038;2023-04-03T03:29:21;5.01;73.21
77519;DHT22;66629;47.346;19.038;2023-04-03T03:31:46;5.03;73.94
77519;DHT22;66629;47.346;19.038;2023-04-03T03:34:12;4.97;74.25
77519;DHT22;66629;47.346;19.038;2023-04-03T03:36:38;4.96;73.35
77519;DHT22;66629;47.346;19.038;2023-04-03T03:39:03;4.95;73.57
77519;DHT22;66629;47.346;19.038;2023-04-03T03:41:29;4.89;74.54
77519;DHT22;66629;47.346;19.038;2023-04-03T03:43:54;4.83;74.41
77519;DHT22;66629;47.346;19.038;2023-04-03T03:46:20;4.89;73.69
77519;DHT22;66629;47.346;19.038;2023-04-03T03:48:45;4.89;73.78
77519;DHT22;66629;47.346;19.038;2023-04-03T03:51:11;4.90;74.22
77519;DHT22;66629;47.346;19.038;2023-04-03T03:53:36;4.86;74.66
77519;DHT22;66629;47.346;19.038;2023-04-03T03:56:03;4.88;74.83
77519;DHT22;66629;47.346;19.038;2023-04-03T03:58:29;4.86;74.71
77519;DHT22;66629;47.346;19.038;2023-04-03T04:00:55;4.85;74.40
77519;DHT22;66629;47.346;19.038;2023-04-03T04:03:21;4.82;74.42
77519;DHT22;66629;47.346;19.038;2023-04-03T04:05:46;4.79;74.34
77519;DHT22;66629;47.346;19.038;2023-04-03T04:08:12;4.75;75.22
77519;DHT22;66629;47.346;19.038;2023-04-03T04:10:38;4.71;74.62
77519;DHT22;66629;47.346;19.038;2023-04-03T04:13:03;4.74;75.36
77519;DHT22;66629;47.346;19.038;2023-04-03T04:15:29;4.68;73.96
77519;DHT22;66629;47.346;19.038;2023-04-03T04:17:54;4.75;74.73
77519;DHT22;66629;47.346;19.038;2023-04-03T04:20:20;4.67;73.93
77519;DHT22;66629;47.346;19.038;2023-04-03T04:22:46;4.71;74.98
77519;DHT22;66629;47.346;19.038;2023-04-03T04:25:11;4.75;75.20
77519;DHT22;66629;47.346;19.038;2023-04-03T04:27:37;4.68;75.47
77519;DHT22;66629;47.346;19.038;2023-04-03T04:30:03;4.69;74.93
77519;DHT22;66629;47.346;19.038;2023-04-03T04:32:29;4.62;74.63
77519;DHT22;66629;47.346;19.038;2023-04-03T04:34:55;4.61;75.00
77519;DHT22;66629;47.346;19.038;2023-04-03T04:37:20;4.64;75.36
77519;DHT22;66629;47.346;19.038;2023-04-03T04:39:46;4.61;74.33
77519;DHT22;66629;47.346;19.038;2023-04-03T04:42:11;4.58;74.63
77519;DHT22;66629;47.346;19.038;2023-04-03T04:44:38;4.62;73.62
77519;DHT22;66629;47.346;19.038;2023-04-03T04:47:04;4.67;73.63
77519;DHT22;66629;47.346;19.038;2023-04-03T04:49:30;4.62;72.97
77519;DHT22;66629;47.346;19.038;2023-04-03T04:51:55;4.65;73.17
77519;DHT22;66629;47.346;19.038;2023-04-03T04:54:21;4.67;73.14
77519;DHT22;66629;47.346;19.038;2023-04-03T04:56:46;4.68;73.77
77519;DHT22;66629;47.346;19.038;2023-04-03T04:59:12;4.61;74.05
77519;DHT22;66629;47.346;19.038;2023-04-03T05:01:37;4.74;74.27
77519;DHT22;66629;47.346;19.038;2023-04-03T05:04:03;4.79;73.32
77519;DHT22;66629;47.346;19.038;2023-04-03T05:06:28;4.79;73.82
77519;DHT22;66629;47.346;19.038;2023-04-03T05:08:55;4.81;74.14
77519;DHT22;66629;47.346;19.038;2023-04-03T05:11:21;4.81;74.27
77519;DHT22;66629;47.346;19.038;2023-04-03T05:13:46;4.81;73.84
77519;DHT22;66629;47.346;19.038;2023-04-03T05:16:12;4.75;73.51
77519;DHT22;66629;47.346;19.038;2023-04-03T05:18:37;4.72;73.17
77519;DHT22;66629;47.346;19.038;2023-04-03T05:21:03;4.72;73.37
77519;DHT22;66629;47.346;19.038;2023-04-03T05:23:28;4.95;73.88
77519;DHT22;66629;47.346;19.038;2023-04-03T05:25:54;5.09;73.13
77519;DHT22;66629;47.346;19.038;2023-04-03T05:28:19;5.49;72.28
77519;DHT22;66629;47.346;19.038;2023-04-03T05:30:44;5.48;71.80
77519;DHT22;66629;47.346;19.038;2023-04-03T05:33:10;5.33;71.97
77519;DHT22;66629;47.346;19.038;2023-04-03T05:35:37;5.37;72.22
77519;DHT22;66629;47.346;19.038;2023-04-03T05:38:05;5.40;72.47
77519;DHT22;66629;47.346;19.038;2023-04-03T05:40:31;5.82;71.36
77519;DHT22;66629;47.346;19.038;2023-04-03T05:42:56;6.11;69.07
77519;DHT22;66629;47.346;19.038;2023-04-03T05:45:22;6.18;68.68
77519;DHT22;66629;47.346;19.038;2023-04-03T05:47:47;6.41;68.18
77519;DHT22;66629;47.346;19.038;2023-04-03T05:50:13;6.24;68.82
77519;DHT22;66629;47.346;19.038;2023-04-03T05:52:43;6.13;68.98
77519;DHT22;66629;47.346;19.038;2023-04-03T05:55:09;6.29;69.13
77519;DHT22;66629;47.346;19.038;2023-04-03T05:57:34;6.43;69.33
77519;DHT22;66629;47.346;19.038;2023-04-03T06:00:00;6.46;68.81
77519;DHT22;66629;47.346;19.038;2023-04-03T06:02:25;6.41;68.62
77519;DHT22;66629;47.346;19.038;2023-04-03T06:04:52;6.41;68.99
77519;DHT22;66629;47.346;19.038;2023-04-03T06:07:22;6.39;69.65
77519;DHT22;66629;47.346;19.038;2023-04-03T06:09:50;6.39;70.28
77519;DHT22;66629;47.346;19.038;2023-04-03T06:12:16;6.28;68.90
77519;DHT22;66629;47.346;19.038;2023-04-03T06:14:42;6.31;70.05
77519;DHT22;66629;47.346;19.038;2023-04-03T06:17:08;6.29;69.39
77519;DHT22;66629;47.346;19.038;2023-04-03T06:19:35;6.17;70.78
77519;DHT22;66629;47.346;19.038;2023-04-03T06:22:01;6.16;70.43
77519;DHT22;66629;47.346;19.038;2023-04-03T06:24:26;6.10;70.18
77519;DHT22;66629;47.346;19.038;2023-04-03T06:26:52;6.31;70.66
77519;DHT22;66629;47.346;19.038;2023-04-03T06:29:19;6.38;69.44
77519;DHT22;66629;47.346;19.038;2023-04-03T06:31:45;6.32;69.73
77519;DHT22;66629;47.346;19.038;2023-04-03T06:34:11;6.24;69.30
77519;DHT22;66629;47.346;19.038;2023-04-03T06:36:37;6.41;69.95
77519;DHT22;66629;47.346;19.038;2023-04-03T06:39:02;6.46;69.57
77519;DHT22;66629;47.346;19.038;2023-04-03T06:41:28;6.56;69.81
77519;DHT22;66629;47.346;19.038;2023-04-03T06:43:54;6.35;69.48
77519;DHT22;66629;47.346;19.038;2023-04-03T06:46:22;6.10;69.56
77519;DHT22;66629;47.346;19.038;2023-04-03T06:48:48;6.29;71.30
77519;DHT22;66629;47.346;19.038;2023-04-03T06:51:21;6.54;71.08
77519;DHT22;66629;47.346;19.038;2023-04-03T06:53:48;6.54;69.50
77519;DHT22;66629;47.346;19.038;2023-04-03T06:56:14;6.87;69.54
77519;DHT22;66629;47.346;19.038;2023-04-03T06:58:41;6.97;68.84
77519;DHT22;66629;47.346;19.038;2023-04-03T07:01:12;7.09;68.47
77519;DHT22;66629;47.346;19.038;2023-04-03T07:03:38;7.09;67.99
77519;DHT22;66629;47.346;19.038;2023-04-03T07:06:05;6.90;68.24
77519;DHT22;66629;47.346;19.038;2023-04-03T07:08:31;7.04;68.18
77519;DHT22;66629;47.346;19.038;2023-04-03T07:10:57;7.09;66.32
77519;DHT22;66629;47.346;19.038;2023-04-03T07:13:22;7.30;67.97
77519;DHT22;66629;47.346;19.038;2023-04-03T07:15:48;7.63;66.89
77519;DHT22;66629;47.346;19.038;2023-04-03T07:18:14;7.81;64.42
77519;DHT22;66629;47.346;19.038;2023-04-03T07:20:39;7.77;64.72
77519;DHT22;66629;47.346;19.038;2023-04-03T07:23:05;8.07;66.13
77519;DHT22;66629;47.346;19.038;2023-04-03T07:25:31;8.34;65.61
77519;DHT22;66629;47.346;19.038;2023-04-03T07:27:57;8.19;62.35
77519;DHT22;66629;47.346;19.038;2023-04-03T07:30:23;8.33;64.33
77519;DHT22;66629;47.346;19.038;2023-04-03T07:32:48;8.44;62.59
77519;DHT22;66629;47.346;19.038;2023-04-03T07:35:14;8.26;60.02
77519;DHT22;66629;47.346;19.038;2023-04-03T07:37:40;8.07;59.71
77519;DHT22;66629;47.346;19.038;2023-04-03T07:40:06;8.05;60.06
77519;DHT22;66629;47.346;19.038;2023-04-03T07:42:32;8.09;60.81
77519;DHT22;66629;47.346;19.038;2023-04-03T07:44:57;7.98;60.46
77519;DHT22;66629;47.346;19.038;2023-04-03T07:47:23;8.17;61.09
77519;DHT22;66629;47.346;19.038;2023-04-03T07:49:49;8.10;59.98
77519;DHT22;66629;47.346;19.038;2023-04-03T07:52:14;8.12;60.32
77519;DHT22;66629;47.346;19.038;2023-04-03T07:54:41;8.14;60.56
77519;DHT22;66629;47.346;19.038;2023-04-03T07:57:07;8.17;60.86
77519;DHT22;66629;47.346;19.038;2023-04-03T07:59:32;8.36;61.50
77519;DHT22;66629;47.346;19.038;2023-04-03T08:01:58;8.46;60.85
77519;DHT22;66629;47.346;19.038;2023-04-03T08:04:23;8.51;58.99
77519;DHT22;66629;47.346;19.038;2023-04-03T08:06:49;8.53;57.94
77519;DHT22;66629;47.346;19.038;2023-04-03T08:09:15;8.67;58.73
77519;DHT22;66629;47.346;19.038;2023-04-03T08:11:41;8.75;58.19
77519;DHT22;66629;47.346;19.038;2023-04-03T08:14:07;8.78;58.32
77519;DHT22;66629;47.346;19.038;2023-04-03T08:16:32;8.82;57.53
77519;DHT22;66629;47.346;19.038;2023-04-03T08:18:58;8.63;57.32
77519;DHT22;66629;47.346;19.038;2023-04-03T08:21:24;8.76;58.94
77519;DHT22;66629;47.346;19.038;2023-04-03T08:23:50;8.67;57.29
77519;DHT22;66629;47.346;19.038;2023-04-03T08:26:19;8.86;58.28
77519;DHT22;66629;47.346;19.038;2023-04-03T08:28:45;8.68;57.10
77519;DHT22;66629;47.346;19.038;2023-04-03T08:31:14;8.78;58.55
77519;DHT22;66629;47.346;19.038;2023-04-03T08:33:40;8.71;56.46
77519;DHT22;66629;47.346;19.038;2023-04-03T08:36:14;8.88;57.13
77519;DHT22;66629;47.346;19.038;2023-04-03T08:38:41;8.89;56.31
77519;DHT22;66629;47.346;19.038;2023-04-03T08:49:33;9.06;57.08
77519;DHT22;66629;47.346;19.038;2023-04-03T08:52:52;9.16;55.39
77519;DHT22;66629;47.346;19.038;2023-04-03T08:55:26;9.10;56.30
77519;DHT22;66629;47.346;19.038;2023-04-03T08:58:05;9.23;55.72
77519;DHT22;66629;47.346;19.038;2023-04-03T09:00:54;9.31;55.03
77519;DHT22;66629;47.346;19.038;2023-04-03T09:03:21;9.24;55.23
77519;DHT22;66629;47.346;19.038;2023-04-03T09:06:11;9.14;54.80
77519;DHT22;66629;47.346;19.038;2023-04-03T09:17:41;9.69;54.64
77519;DHT22;66629;47.346;19.038;2023-04-03T09:25:40;9.45;54.02
77519;DHT22;66629;47.346;19.038;2023-04-03T09:28:05;9.83;55.20
77519;DHT22;66629;47.346;19.038;2023-04-03T09:30:35;9.72;53.00
77519;DHT22;66629;47.346;19.038;2023-04-03T09:33:02;9.78;52.58
77519;DHT22;66629;47.346;19.038;2023-04-03T09:35:32;9.94;53.28
77519;DHT22;66629;47.346;19.038;2023-04-03T09:38:14;9.97;52.81
77519;DHT22;66629;47.346;19.038;2023-04-03T09:40:44;10.31;52.64
77519;DHT22;66629;47.346;19.038;2023-04-03T09:45:43;10.39;52.15
77519;DHT22;66629;47.346;19.038;2023-04-03T09:48:17;10.45;50.73
77519;DHT22;66629;47.346;19.038;2023-04-03T09:50:56;10.48;52.05
77519;DHT22;66629;47.346;19.038;2023-04-03T09:53:30;10.53;52.50
77519;DHT22;66629;47.346;19.038;2023-04-03T09:55:57;10.77;51.80
77519;DHT22;66629;47.346;19.038;2023-04-03T09:58:29;10.80;50.39
77519;DHT22;66629;47.346;19.038;2023-04-03T10:00:58;11.04;50.95
77519;DHT22;66629;47.346;19.038;2023-04-03T10:03:30;11.25;52.55
77519;DHT22;66629;47.346;19.038;2023-04-03T10:05:57;11.33;49.23
77519;DHT22;66629;47.346;19.038;2023-04-03T10:08:34;11.31;48.56
77519;DHT22;66629;47.346;19.038;2023-04-03T10:13:50;12.65;48.12
77519;DHT22;66629;47.346;19.038;2023-04-03T10:16:19;13.32;45.70
77519;DHT22;66629;47.346;19.038;2023-04-03T10:19:09;14.17;47.40
77519;DHT22;66629;47.346;19.038;2023-04-03T10:21:52;14.58;45.27
77519;DHT22;66629;47.346;19.038;2023-04-03T10:38:24;13.02;46.43
77519;DHT22;66629;47.346;19.038;2023-04-03T10:43:48;13.33;43.47
77519;DHT22;66629;47.346;19.038;2023-04-03T10:51:48;12.32;45.00
77519;DHT22;66629;47.346;19.038;2023-04-03T10:54:38;12.04;46.15
77519;DHT22;66629;47.346;19.038;2023-04-03T10:57:07;11.88;45.33
77519;DHT22;66629;47.346;19.038;2023-04-03T11:02:21;11.77;45.80
77519;DHT22;66629;47.346;19.038;2023-04-03T11:04:51;11.56;47.31
77519;DHT22;66629;47.346;19.038;2023-04-03T11:07:27;11.52;45.88
77519;DHT22;66629;47.346;19.038;2023-04-03T11:10:00;11.18;47.94
77519;DHT22;66629;47.346;19.038;2023-04-03T11:12:36;10.94;47.11
77519;DHT22;66629;47.346;19.038;2023-04-03T11:15:04;11.12;49.44
77519;DHT22;66629;47.346;19.038;2023-04-03T11:17:33;11.08;50.12
77519;DHT22;66629;47.346;19.038;2023-04-03T11:20:01;11.03;48.26
77519;DHT22;66629;47.346;19.038;2023-04-03T11:22:58;10.87;48.00
77519;DHT22;66629;47.346;19.038;2023-04-03T11:25:26;10.83;48.55
77519;DHT22;66629;47.346;19.038;2023-04-03T11:27:59;11.11;51.13
77519;DHT22;66629;47.346;19.038;2023-04-03T11:30:33;10.96;48.96
77519;DHT22;66629;47.346;19.038;2023-04-03T11:36:09;10.98;48.04
77519;DHT22;66629;47.346;19.038;2023-04-03T11:38:42;10.96;48.27
77519;DHT22;66629;47.346;19.038;2023-04-03T11:41:09;11.06;49.96
77519;DHT22;66629;47.346;19.038;2023-04-03T11:43:41;10.76;48.50
77519;DHT22;66629;47.346;19.038;2023-04-03T11:46:08;10.89;49.66
77519;DHT22;66629;47.346;19.038;2023-04-03T11:53:54;10.83;48.05
77519;DHT22;66629;47.346;19.038;2023-04-03T12:04:12;10.72;48.37
77519;DHT22;66629;47.346;19.038;2023-04-03T12:11:52;11.07;47.86
77519;DHT22;66629;47.346;19.038;2023-04-03T12:14:18;10.81;47.02
77519;DHT22;66629;47.346;19.038;2023-04-03T12:16:46;10.79;48.23
77519;DHT22;66629;47.346;19.038;2023-04-03T12:26:46;10.72;48.28
77519;DHT22;66629;47.346;19.038;2023-04-03T12:35:28;10.84;49.28
77519;DHT22;66629;47.346;19.038;2023-04-03T12:46:59;10.83;47.55
77519;DHT22;66629;47.346;19.038;2023-04-03T12:49:40;10.80;47.49
77519;DHT22;66629;47.346;19.038;2023-04-03T12:52:22;10.76;48.64
77519;DHT22;66629;47.346;19.038;2023-04-03T12:54:49;10.80;48.57
77519;DHT22;66629;47.346;19.038;2023-04-03T12:57:26;10.84;47.60
77519;DHT22;66629;47.346;19.038;2023-04-03T12:59:53;10.69;45.96
77519;DHT22;66629;47.346;19.038;2023-04-03T13:02:29;10.73;47.72
77519;DHT22;66629;47.346;19.038;2023-04-03T13:04:58;10.66;47.72
77519;DHT22;66629;47.346;19.038;2023-04-03T13:07:33;10.70;47.78
77519;DHT22;66629;47.346;19.038;2023-04-03T13:12:32;10.67;46.51
77519;DHT22;66629;47.346;19.038;2023-04-03T13:15:11;10.79;46.62
77519;DHT22;66629;47.346;19.038;2023-04-03T13:17:41;10.93;47.22
77519;DHT22;66629;47.346;19.038;2023-04-03T13:20:27;10.85;46.52
77519;DHT22;66629;47.346;19.038;2023-04-03T13:23:02;10.94;45.84
77519;DHT22;66629;47.346;19.038;2023-04-03T13:25:32;10.84;45.91
77519;DHT22;66629;47.346;19.038;2023-04-03T13:28:01;10.87;45.51
77519;DHT22;66629;47.346;19.038;2023-04-03T13:30:31;10.83;45.65
77519;DHT22;66629;47.346;19.038;2023-04-03T13:33:01;10.96;45.88
77519;DHT22;66629;47.346;19.038;2023-04-03T13:35:34;11.01;45.48
77519;DHT22;66629;47.346;19.038;2023-04-03T13:38:21;11.11;46.07
77519;DHT22;66629;47.346;19.038;2023-04-03T13:41:24;11.18;45.40
77519;DHT22;66629;47.346;19.038;2023-04-03T13:43:50;11.16;45.51
77519;DHT22;66629;47.346;19.038;2023-04-03T13:48:44;11.36;46.83
77519;DHT22;66629;47.346;19.038;2023-04-03T13:53:50;11.31;45.93
77519;DHT22;66629;47.346;19.038;2023-04-03T13:59:21;11.16;46.35
77519;DHT22;66629;47.346;19.038;2023-04-03T14:04:28;11.16;46.09
77519;DHT22;66629;47.346;19.038;2023-04-03T14:06:54;11.14;45.71
77519;DHT22;66629;47.346;19.038;2023-04-03T14:09:21;11.08;45.31
77519;DHT22;66629;47.346;19.038;2023-04-03T14:11:49;11.08;46.71
77519;DHT22;66629;47.346;19.038;2023-04-03T14:14:27;11.14;45.54
77519;DHT22;66629;47.346;19.038;2023-04-03T14:16:57;11.15;46.48
77519;DHT22;66629;47.346;19.038;2023-04-03T14:19:30;11.10;46.56
77519;DHT22;66629;47.346;19.038;2023-04-03T14:21:56;11.11;45.89
77519;DHT22;66629;47.346;19.038;2023-04-03T14:24:23;11.19;46.91
77519;DHT22;66629;47.346;19.038;2023-04-03T14:26:50;11.29;46.72
77519;DHT22;66629;47.346;19.038;2023-04-03T14:29:16;11.42;45.53
77519;DHT22;66629;47.346;19.038;2023-04-03T14:31:44;11.40;45.70
77519;DHT22;66629;47.346;19.038;2023-04-03T14:34:11;11.24;45.18
77519;DHT22;66629;47.346;19.038;2023-04-03T14:36:37;11.04;45.01
77519;DHT22;66629;47.346;19.038;2023-04-03T14:39:04;11.18;45.79
77519;DHT22;66629;47.346;19.038;2023-04-03T14:41:29;11.12;45.42
77519;DHT22;66629;47.346;19.038;2023-04-03T14:43:55;11.04;46.35
77519;DHT22;66629;47.346;19.038;2023-04-03T14:48:53;11.04;45.62
77519;DHT22;66629;47.346;19.038;2023-04-03T14:51:18;10.91;44.54
77519;DHT22;66629;47.346;19.038;2023-04-03T14:53:44;10.96;44.85
77519;DHT22;66629;47.346;19.038;2023-04-03T14:56:18;10.93;45.54
77519;DHT22;66629;47.346;19.038;2023-04-03T14:58:46;11.01;45.52
77519;DHT22;66629;47.346;19.038;2023-04-03T15:01:15;11.07;45.42
77519;DHT22;66629;47.346;19.038;2023-04-03T15:03:41;11.04;45.19
77519;DHT22;66629;47.346;19.038;2023-04-03T15:06:09;11.15;48.04
77519;DHT22;66629;47.346;19.038;2023-04-03T15:08:35;10.79;48.22
77519;DHT22;66629;47.346;19.038;2023-04-03T15:11:00;10.69;49.29
77519;DHT22;66629;47.346;19.038;2023-04-03T15:13:26;10.72;48.78
77519;DHT22;66629;47.346;19.038;2023-04-03T15:15:51;10.52;49.38
77519;DHT22;66629;47.346;19.038;2023-04-03T15:18:25;10.27;49.59
77519;DHT22;66629;47.346;19.038;2023-04-03T15:20:54;10.08;49.33
77519;DHT22;66629;47.346;19.038;2023-04-03T15:23:20;9.93;48.82
77519;DHT22;66629;47.346;19.038;2023-04-03T15:25:52;9.87;49.70
77519;DHT22;66629;47.346;19.038;2023-04-03T15:28:40;9.69;48.80
77519;DHT22;66629;47.346;19.038;2023-04-03T15:31:06;9.75;49.69
77519;DHT22;66629;47.346;19.038;2023-04-03T15:33:32;9.65;49.75
77519;DHT22;66629;47.346;19.038;2023-04-03T15:35:59;9.59;50.06
77519;DHT22;66629;47.346;19.038;2023-04-03T15:38:25;9.48;50.04
77519;DHT22;66629;47.346;19.038;2023-04-03T15:40:50;9.31;49.75
77519;DHT22;66629;47.346;19.038;2023-04-03T15:43:16;9.26;50.67
77519;DHT22;66629;47.346;19.038;2023-04-03T15:45:43;9.23;50.70
77519;DHT22;66629;47.346;19.038;2023-04-03T15:48:10;9.09;49.60
77519;DHT22;66629;47.346;19.038;2023-04-03T15:50:36;9.14;50.05
77519;DHT22;66629;47.346;19.038;2023-04-03T15:53:02;9.17;50.26
77519;DHT22;66629;47.346;19.038;2023-04-03T15:55:33;9.07;49.81
77519;DHT22;66629;47.346;19.038;2023-04-03T15:58:00;9.09;49.52
77519;DHT22;66629;47.346;19.038;2023-04-03T16:00:26;9.02;49.35
77519;DHT22;66629;47.346;19.038;2023-04-03T16:02:55;8.93;49.75
77519;DHT22;66629;47.346;19.038;2023-04-03T16:05:22;8.99;50.34
77519;DHT22;66629;47.346;19.038;2023-04-03T16:07:48;8.85;49.78
77519;DHT22;66629;47.346;19.038;2023-04-03T16:10:15;8.69;50.02
77519;DHT22;66629;47.346;19.038;2023-04-03T16:12:41;8.57;49.70
77519;DHT22;66629;47.346;19.038;2023-04-03T16:15:07;8.53;49.30
77519;DHT22;66629;47.346;19.038;2023-04-03T16:17:34;8.46;48.90
77519;DHT22;66629;47.346;19.038;2023-04-03T16:20:00;8.47;49.52
77519;DHT22;66629;47.346;19.038;2023-04-03T16:22:26;8.44;49.04
77519;DHT22;66629;47.346;19.038;2023-04-03T16:24:53;8.37;48.83
77519;DHT22;66629;47.346;19.038;2023-04-03T16:27:18;8.38;49.54
77519;DHT22;66629;47.346;19.038;2023-04-03T16:29:43;8.41;50.19
77519;DHT22;66629;47.346;19.038;2023-04-03T16:32:09;8.25;49.03
77519;DHT22;66629;47.346;19.038;2023-04-03T16:34:35;8.25;49.23
77519;DHT22;66629;47.346;19.038;2023-04-03T16:37:00;8.20;48.65
77519;DHT22;66629;47.346;19.038;2023-04-03T16:39:26;8.13;48.88
77519;DHT22;66629;47.346;19.038;2023-04-03T16:41:52;8.13;48.21
77519;DHT22;66629;47.346;19.038;2023-04-03T16:44:17;8.17;48.32
77519;DHT22;66629;47.346;19.038;2023-04-03T16:46:43;8.25;51.19
77519;DHT22;66629;47.346;19.038;2023-04-03T16:49:08;8.17;48.54
77519;DHT22;66629;47.346;19.038;2023-04-03T16:51:33;8.17;49.33
77519;DHT22;66629;47.346;19.038;2023-04-03T16:53:59;8.12;49.37
77519;DHT22;66629;47.346;19.038;2023-04-03T16:56:25;8.10;48.30
77519;DHT22;66629;47.346;19.038;2023-04-03T16:58:53;8.14;49.60
77519;DHT22;66629;47.346;19.038;2023-04-03T17:01:21;8.17;48.63
77519;DHT22;66629;47.346;19.038;2023-04-03T17:03:47;8.14;48.52
77519;DHT22;66629;47.346;19.038;2023-04-03T17:06:17;8.06;48.10
77519;DHT22;66629;47.346;19.038;2023-04-03T17:08:44;8.10;48.15
77519;DHT22;66629;47.346;19.038;2023-04-03T17:11:09;8.14;48.09
77519;DHT22;66629;47.346;19.038;2023-04-03T17:13:35;8.19;48.59
77519;DHT22;66629;47.346;19.038;2023-04-03T17:16:02;8.17;49.30
77519;DHT22;66629;47.346;19.038;2023-04-03T17:18:30;8.20;48.73
77519;DHT22;66629;47.346;19.038;2023-04-03T17:20:56;8.23;48.88
77519;DHT22;66629;47.346;19.038;2023-04-03T17:23:24;8.25;49.52
77519;DHT22;66629;47.346;19.038;2023-04-03T17:25:50;8.36;49.69
77519;DHT22;66629;47.346;19.038;2023-04-03T17:28:16;8.36;51.08
77519;DHT22;66629;47.346;19.038;2023-04-03T17:30:41;8.37;52.09
77519;DHT22;66629;47.346;19.038;2023-04-03T17:33:06;8.41;52.69